Time;durP1;ratioP1;P1;durP2;ratioP2;P2;SDS_P1;SDS_P2;PMS_P1;PMS_P2;Temp;Humidity;BMP_temperature;BMP_pressure;BME280_temperature;BME280_humidity;BME280_pressure;Samples;Min_cycle;Max_cycle;Signal;HPM_P1;HPM_P2
2023/06/13 00:00:09;;;;;;;15.80;7.70;;;;;;;18.32;94.94;98110.72;5104040;28;20047;-92
2023/06/13 00:02:38;;;;;;;15.40;7.70;;;;;;;18.13;97.85;98102.19;5104008;28;20043;-92
2023/06/13 00:05:05;;;;;;;16.80;7.32;;;;;;;18.02;100.00;98109.19;5104494;28;20043;-92
2023/06/13 00:07:32;;;;;;;14.98;7.72;;;;;;;17.91;100.00;98117.09;5103802;28;20435;-92
2023/06/13 00:09:58;;;;;;;18.77;9.35;;;;;;;17.71;100.00;98109.47;5103230;28;20040;-93
2023/06/13 00:12:25;;;;;;;19.65;9.50;;;;;;;17.66;100.00;98110.66;5104216;28;20485;-93
2023/06/13 00:14:51;;;;;;;26.50;9.50;;;;;;;17.71;100.00;98126.47;5104983;28;20047;-92
2023/06/13 00:17:18;;;;;;;20.33;9.05;;;;;;;17.58;100.00;98125.56;5102559;28;20036;-93
2023/06/13 00:19:46;;;;;;;18.73;8.98;;;;;;;17.38;100.00;98110.75;5103244;28;20043;-91
2023/06/13 00:22:14;;;;;;;16.60;8.40;;;;;;;17.29;100.00;98109.53;5103768;28;20459;-91
2023/06/13 00:24:41;;;;;;;18.63;8.50;;;;;;;17.27;100.00;98122.19;5103078;28;20056;-92
2023/06/13 00:27:07;;;;;;;18.73;8.70;;;;;;;17.22;100.00;98132.41;5103394;28;20430;-92
2023/06/13 00:29:33;;;;;;;17.52;9.07;;;;;;;17.02;100.00;98118.41;5131647;27;20126;-93
2023/06/13 00:31:59;;;;;;;21.05;9.25;;;;;;;17.02;100.00;98126.47;5099055;28;20417;-91
2023/06/13 00:34:25;;;;;;;23.33;9.23;;;;;;;17.00;100.00;98122.13;5104612;28;20140;-92
2023/06/13 00:36:55;;;;;;;21.48;9.73;;;;;;;17.02;100.00;98131.84;5103801;28;20055;-93
2023/06/13 00:39:21;;;;;;;25.30;10.27;;;;;;;16.97;100.00;98130.41;5104329;28;20036;-92
2023/06/13 00:41:47;;;;;;;22.48;9.48;;;;;;;16.91;100.00;98128.09;5102887;28;20054;-92
2023/06/13 00:44:13;;;;;;;25.45;10.25;;;;;;;17.01;100.00;98158.78;5103420;28;20505;-91
2023/06/13 00:46:41;;;;;;;19.67;9.18;;;;;;;16.85;100.00;98118.63;5102432;28;20398;-92
2023/06/13 00:49:08;;;;;;;21.52;9.10;;;;;;;16.80;100.00;98134.13;5102565;28;20066;-92
2023/06/13 00:51:40;;;;;;;19.83;8.85;;;;;;;16.68;100.00;98121.47;5102943;28;20044;-92
2023/06/13 00:54:10;;;;;;;20.00;9.10;;;;;;;16.75;100.00;98141.59;5102708;28;20068;-93
2023/06/13 00:56:37;;;;;;;19.67;9.45;;;;;;;16.58;100.00;98131.91;5101201;28;20064;-92
2023/06/13 00:59:04;;;;;;;15.95;8.07;;;;;;;16.48;100.00;98136.97;5101588;28;20044;-91
2023/06/13 01:01:30;;;;;;;15.18;7.38;;;;;;;16.40;100.00;98125.84;5101118;28;20040;-93
2023/06/13 01:03:59;;;;;;;14.77;7.70;;;;;;;16.50;100.00;98150.28;5102958;28;20409;-90
2023/06/13 01:06:25;;;;;;;;;;;;;;;16.59;100.00;98157.75;5103788;28;20036;-92
2023/06/13 01:08:58;;;;;;;13.77;7.45;;;;;;;16.38;100.00;98117.03;5101967;28;20004;-91
2023/06/13 01:11:33;;;;;;;16.80;7.75;;;;;;;16.33;100.00;98113.75;5101984;28;20051;-91
2023/06/13 01:14:10;;;;;;;16.05;7.35;;;;;;;16.22;100.00;98117.97;5101733;28;20443;-91
2023/06/13 01:16:45;;;;;;;12.05;7.18;;;;;;;16.20;100.00;98119.88;5100795;28;20494;-91
2023/06/13 01:19:23;;;;;;;12.77;6.93;;;;;;;16.25;100.00;98135.69;5102152;28;20036;-92
2023/06/13 01:21:51;;;;;;;15.65;7.57;;;;;;;16.19;100.00;98123.50;5101298;28;20044;-92
2023/06/13 01:24:24;;;;;;;14.23;6.97;;;;;;;16.38;100.00;98141.19;5105415;28;20054;-91
2023/06/13 01:26:54;;;;;;;16.00;7.65;;;;;;;16.33;100.00;98124.47;5104236;28;20048;-93
2023/06/13 01:29:21;;;;;;;14.88;7.57;;;;;;;16.33;100.00;98116.41;5105810;28;20409;-91
2023/06/13 01:31:52;;;;;;;12.73;7.32;;;;;;;16.36;100.00;98118.94;5105471;28;20055;-92
2023/06/13 01:34:18;;;;;;;15.02;7.40;;;;;;;16.31;100.00;98110.28;5106561;28;20040;-91
2023/06/13 01:36:45;;;;;;;12.98;7.18;;;;;;;16.36;100.00;98103.69;5104462;28;20055;-94
2023/06/13 01:39:11;;;;;;;14.27;7.35;;;;;;;16.29;100.00;98104.19;5105242;28;20371;-93
2023/06/13 01:41:37;;;;;;;16.95;7.75;;;;;;;16.28;100.00;98107.81;5106162;28;20064;-92
2023/06/13 01:44:06;;;;;;;15.95;7.95;;;;;;;16.22;100.00;98112.59;5106078;28;20113;-92
2023/06/13 01:46:42;;;;;;;;;;;;;;;16.49;100.00;98160.16;5105767;28;20063;-91
2023/06/13 01:49:16;;;;;;;11.68;6.93;;;;;;;16.28;100.00;98135.47;5106083;28;19927;-92
2023/06/13 01:51:48;;;;;;;13.35;6.57;;;;;;;16.16;100.00;98137.09;5105358;28;20040;-92
2023/06/13 01:54:21;;;;;;;12.68;6.15;;;;;;;16.13;100.00;98142.63;5105473;28;20064;-93
2023/06/13 01:56:49;;;;;;;11.25;6.78;;;;;;;16.11;100.00;98152.63;5105996;28;20047;-92
2023/06/13 01:59:23;;;;;;;9.80;6.22;;;;;;;15.92;100.00;98123.34;5105657;28;20043;-93
2023/06/13 02:01:50;;;;;;;9.77;5.90;;;;;;;15.95;100.00;98139.22;5105015;28;20040;-93
2023/06/13 02:04:16;;;;;;;12.35;6.65;;;;;;;15.82;100.00;98123.00;5106635;28;20505;-92
2023/06/13 02:06:42;;;;;;;10.88;6.22;;;;;;;15.91;100.00;98142.19;5105007;28;20405;-93
2023/06/13 02:09:08;;;;;;;9.45;5.93;;;;;;;15.76;100.00;98119.81;5106308;28;20060;-92
2023/06/13 02:11:34;;;;;;;12.13;6.55;;;;;;;15.92;100.00;98155.50;5105237;28;20043;-92
2023/06/13 02:14:00;;;;;;;12.07;6.78;;;;;;;15.69;100.00;98121.09;5105106;28;20104;-92
2023/06/13 02:16:29;;;;;;;10.00;6.13;;;;;;;15.61;100.00;98116.19;5103809;28;20066;-93
2023/06/13 02:18:55;;;;;;;10.93;6.47;;;;;;;15.68;100.00;98136.34;5105439;28;20048;-92
2023/06/13 02:21:22;;;;;;;10.52;6.32;;;;;;;15.64;100.00;98131.25;5122037;28;20494;-91
2023/06/13 02:23:48;;;;;;;14.15;6.25;;;;;;;15.49;100.00;98119.59;5105216;28;20047;-92
2023/06/13 02:26:14;;;;;;;10.30;6.03;;;;;;;15.63;100.00;98151.78;5105123;28;20041;-93
2023/06/13 02:28:40;;;;;;;12.07;6.22;;;;;;;15.45;100.00;98118.03;5105065;28;20111;-93
2023/06/13 02:31:06;;;;;;;12.10;6.25;;;;;;;15.35;100.00;98110.53;5120896;28;20566;-91
2023/06/13 02:33:33;;;;;;;9.68;5.93;;;;;;;15.43;100.00;98123.47;5104744;28;20047;-93
2023/06/13 02:35:59;;;;;;;12.55;6.00;;;;;;;15.44;100.00;98132.38;5120873;28;20064;-92
2023/06/13 02:38:25;;;;;;;10.55;6.15;;;;;;;15.47;100.00;98149.13;5103386;28;20059;-92
2023/06/13 02:40:51;;;;;;;10.82;5.93;;;;;;;15.22;100.00;98113.97;5104205;28;20494;-92
2023/06/13 02:43:17;;;;;;;10.63;6.07;;;;;;;15.21;100.00;98123.81;5104368;28;20064;-91
2023/06/13 02:45:43;;;;;;;10.45;5.85;;;;;;;15.17;100.00;98109.72;5103400;28;20501;-94
2023/06/13 02:48:09;;;;;;;11.73;6.25;;;;;;;15.39;100.00;98146.88;5104543;28;20061;-92
2023/06/13 02:50:36;;;;;;;14.32;8.10;;;;;;;15.27;100.00;98130.66;5104095;28;20051;-91
2023/06/13 02:53:02;;;;;;;11.73;6.72;;;;;;;15.15;100.00;98133.06;5104626;28;20044;-92
2023/06/13 02:55:29;;;;;;;11.15;6.40;;;;;;;15.22;100.00;98146.97;5103940;28;20036;-92
2023/06/13 02:57:55;;;;;;;9.80;5.97;;;;;;;15.27;100.00;98150.28;5102610;28;20097;-93
2023/06/13 03:00:22;;;;;;;9.88;6.28;;;;;;;15.10;100.00;98132.47;5103422;28;20403;-92
2023/06/13 03:02:48;;;;;;;11.30;6.15;;;;;;;15.06;100.00;98133.56;5104288;28;20102;-93
2023/06/13 03:05:15;;;;;;;11.25;6.43;;;;;;;14.98;100.00;98134.03;5104852;28;20040;-91
2023/06/13 03:07:46;;;;;;;10.07;6.07;;;;;;;14.96;100.00;98133.22;5103961;28;20055;-93
2023/06/13 03:10:13;;;;;;;10.77;6.35;;;;;;;15.01;100.00;98143.69;5101344;28;20051;-91
2023/06/13 03:12:40;;;;;;;13.50;6.45;;;;;;;15.04;100.00;98139.97;5102613;28;20147;-93
2023/06/13 03:15:07;;;;;;;9.75;6.68;;;;;;;14.96;100.00;98140.38;5101320;28;20044;-92
2023/06/13 03:17:33;;;;;;;10.00;5.75;;;;;;;14.93;100.00;98141.41;5102253;28;20051;-93
2023/06/13 03:19:59;;;;;;;11.35;6.50;;;;;;;15.11;100.00;98173.50;5103409;28;20516;-92
2023/06/13 03:22:25;;;;;;;12.50;6.85;;;;;;;15.08;100.00;98165.63;5102586;28;20108;-92
2023/06/13 03:24:52;;;;;;;11.65;6.75;;;;;;;15.07;100.00;98162.09;5102971;28;20073;-92
2023/06/13 03:27:19;;;;;;;11.45;6.38;;;;;;;15.11;100.00;98170.81;5102881;28;20097;-91
2023/06/13 03:29:46;;;;;;;11.55;6.38;;;;;;;15.12;100.00;98148.44;5102624;28;20045;-95
2023/06/13 03:32:12;;;;;;;12.07;6.60;;;;;;;15.14;100.00;98146.56;5098544;28;20040;-92
2023/06/13 03:34:39;;;;;;;18.10;7.80;;;;;;;15.15;100.00;98156.31;5102520;28;20088;-93
2023/06/13 03:37:07;;;;;;;13.68;7.25;;;;;;;15.28;100.00;98185.94;5098551;28;20055;-93
2023/06/13 03:39:33;;;;;;;12.32;7.20;;;;;;;15.07;100.00;98158.53;5097611;28;20046;-95
2023/06/13 03:42:01;;;;;;;13.05;6.93;;;;;;;15.31;100.00;98180.41;5100802;28;20501;-91
2023/06/13 03:44:27;;;;;;;12.68;7.63;;;;;;;15.15;100.00;98148.28;5098432;28;20048;-93
2023/06/13 03:46:54;;;;;;;10.05;6.75;;;;;;;15.29;100.00;98176.94;5099391;28;20138;-93
2023/06/13 03:49:20;;;;;;;12.23;6.57;;;;;;;15.42;100.00;98199.44;5100852;28;20501;-92
2023/06/13 03:51:46;;;;;;;13.38;7.45;;;;;;;15.27;100.00;98162.81;5098023;28;20047;-92
2023/06/13 03:54:12;;;;;;;11.52;7.05;;;;;;;15.46;100.00;98187.63;5100092;28;20058;-92
2023/06/13 03:56:38;;;;;;;11.88;6.80;;;;;;;15.30;100.00;98149.22;5098157;28;20127;-91
2023/06/13 03:59:05;;;;;;;15.55;6.82;;;;;;;15.52;100.00;98170.31;5098199;28;20142;-91
2023/06/13 04:01:31;;;;;;;11.68;6.38;;;;;;;15.37;100.00;98140.75;5099197;28;20048;-93
2023/06/13 04:03:57;;;;;;;10.43;6.38;;;;;;;15.66;100.00;98172.19;5100446;28;20040;-91
2023/06/13 04:06:24;;;;;;;12.60;6.72;;;;;;;15.49;100.00;98146.38;5101018;28;20116;-90
2023/06/13 04:08:50;;;;;;;9.98;6.63;;;;;;;15.65;100.00;98152.56;5099642;28;20044;-95
2023/06/13 04:11:16;;;;;;;10.10;5.88;;;;;;;15.68;100.00;98139.00;5099049;28;20043;-91
2023/06/13 04:13:42;;;;;;;13.18;6.45;;;;;;;15.70;100.00;98137.09;5099500;28;20198;-95
2023/06/13 04:16:09;;;;;;;10.40;6.00;;;;;;;15.74;100.00;98132.44;5098317;28;20123;-93
2023/06/13 04:18:37;;;;;;;10.45;6.32;;;;;;;15.79;100.00;98128.56;5099087;28;20036;-93
2023/06/13 04:21:03;;;;;;;14.70;6.43;;;;;;;15.95;100.00;98154.47;5120582;27;20055;-93
2023/06/13 04:23:29;;;;;;;12.57;6.38;;;;;;;15.88;100.00;98126.28;5130123;27;20044;-94
2023/06/13 04:25:57;;;;;;;10.70;6.00;;;;;;;16.13;100.00;98157.88;5095772;28;20036;-92
2023/06/13 04:28:24;;;;;;;10.85;6.13;;;;;;;16.01;100.00;98128.16;5098387;28;20040;-92
2023/06/13 04:30:51;;;;;;;10.68;6.32;;;;;;;16.21;100.00;98150.25;5098556;28;20104;-94
2023/06/13 04:33:19;;;;;;;12.70;6.50;;;;;;;16.23;100.00;98151.00;5099544;28;20040;-93
2023/06/13 04:35:46;;;;;;;12.60;6.47;;;;;;;16.27;100.00;98143.66;5099936;28;20048;-93
2023/06/13 04:38:13;;;;;;;12.35;6.38;;;;;;;16.36;100.00;98141.25;5100140;28;20044;-91
2023/06/13 04:40:39;;;;;;;10.70;5.70;;;;;;;16.51;100.00;98150.19;5100706;28;20514;-92
2023/06/13 04:43:05;;;;;;;11.90;6.13;;;;;;;16.56;100.00;98140.03;5102065;28;20048;-93
2023/06/13 04:45:33;;;;;;;11.13;6.65;;;;;;;16.67;100.00;98154.63;5101343;28;20082;-91
2023/06/13 04:48:01;;;;;;;16.50;6.70;;;;;;;16.76;100.00;98152.25;5102012;28;20116;-92
2023/06/13 04:50:28;;;;;;;14.03;6.83;;;;;;;17.11;100.00;98161.75;5102483;28;20044;-93
2023/06/13 04:52:54;;;;;;;11.63;6.35;;;;;;;17.79;100.00;98155.56;5100895;28;20288;-92
2023/06/13 04:55:22;;;;;;;10.82;6.40;;;;;;;18.64;100.00;98174.94;5099490;28;20052;-94
2023/06/13 04:57:48;;;;;;;10.55;6.13;;;;;;;19.14;100.00;98154.38;5102439;28;20048;-92
2023/06/13 05:00:15;;;;;;;12.25;6.50;;;;;;;20.01;100.00;98176.78;5104012;28;20123;-92
2023/06/13 05:02:42;;;;;;;11.93;6.47;;;;;;;20.33;100.00;98169.91;5103554;28;20126;-92
2023/06/13 05:05:08;;;;;;;10.00;6.03;;;;;;;20.72;100.00;98150.63;5104272;28;20061;-94
2023/06/13 05:07:36;;;;;;;12.05;6.20;;;;;;;20.68;100.00;98178.88;5101734;28;20096;-93
2023/06/13 05:10:02;;;;;;;13.07;7.00;;;;;;;21.03;100.00;98141.94;5101293;28;20044;-93
2023/06/13 05:12:28;;;;;;;13.80;7.30;;;;;;;21.27;100.00;98158.91;5104249;28;20044;-93
2023/06/13 05:14:54;;;;;;;12.95;6.68;;;;;;;21.46;98.59;98155.59;5103505;28;20493;-93
2023/06/13 05:17:20;;;;;;;12.65;7.10;;;;;;;21.71;96.72;98140.06;5103227;28;20043;-94
2023/06/13 05:19:46;;;;;;;11.75;6.78;;;;;;;21.97;95.05;98142.44;5104175;28;20048;-94
2023/06/13 05:22:12;;;;;;;18.52;7.45;;;;;;;22.15;93.48;98146.31;5102415;28;20057;-94
2023/06/13 05:24:40;;;;;;;17.30;7.03;;;;;;;22.08;94.47;98142.41;5102639;28;20044;-93
2023/06/13 05:27:07;;;;;;;11.98;7.20;;;;;;;21.97;94.42;98137.00;5102036;28;20055;-94
2023/06/13 05:29:32;;;;;;;14.10;7.25;;;;;;;22.44;90.70;98143.00;5102612;28;20047;-93
2023/06/13 05:31:59;;;;;;;14.90;7.63;;;;;;;22.42;92.35;98126.00;5103929;28;20440;-93
2023/06/13 05:34:26;;;;;;;14.82;7.68;;;;;;;22.07;92.71;98132.56;5104271;28;20501;-93
2023/06/13 05:36:53;;;;;;;14.88;8.20;;;;;;;22.40;92.42;98146.94;5105822;28;20052;-93
2023/06/13 05:39:19;;;;;;;14.65;7.68;;;;;;;22.10;93.74;98127.75;5106428;28;20051;-94
2023/06/13 05:41:46;;;;;;;13.77;7.55;;;;;;;22.09;93.60;98131.44;5106699;28;20257;-92
2023/06/13 05:44:13;;;;;;;15.35;7.35;;;;;;;22.15;92.57;98124.66;5106032;28;20397;-94
2023/06/13 05:46:39;;;;;;;15.10;7.60;;;;;;;22.25;91.79;98128.31;5106527;28;20047;-94
2023/06/13 05:49:06;;;;;;;15.40;8.23;;;;;;;22.28;91.67;98128.06;5106736;28;20044;-94
2023/06/13 05:51:32;;;;;;;16.92;8.10;;;;;;;22.20;93.59;98129.66;5106263;28;20040;-94
2023/06/13 05:53:59;;;;;;;14.10;7.38;;;;;;;22.76;90.22;98141.06;5106237;28;20040;-94
2023/06/13 05:56:25;;;;;;;19.15;8.07;;;;;;;22.82;89.89;98120.69;5107910;28;20043;-94
2023/06/13 05:58:53;;;;;;;13.57;7.80;;;;;;;22.70;89.61;98114.50;5106577;28;20040;-93
2023/06/13 06:01:20;;;;;;;14.75;7.85;;;;;;;22.69;88.96;98110.06;5109827;28;20051;-96
2023/06/13 06:03:46;;;;;;;13.65;7.32;;;;;;;22.93;87.98;98108.91;5108805;28;20040;-96
2023/06/13 06:06:13;;;;;;;15.30;7.97;;;;;;;22.73;87.20;98105.25;5107579;28;20044;-95
2023/06/13 06:08:39;;;;;;;16.42;7.75;;;;;;;22.55;88.00;98103.16;5108248;28;20044;-95
2023/06/13 06:11:05;;;;;;;20.80;8.15;;;;;;;21.89;92.08;98100.63;5107325;28;20055;-95
2023/06/13 06:13:31;;;;;;;17.95;8.05;;;;;;;21.86;91.31;98102.72;5107378;28;20048;-96
2023/06/13 06:15:59;;;;;;;21.45;7.60;;;;;;;21.50;95.23;98097.56;5104074;28;20040;-95
2023/06/13 06:18:25;;;;;;;18.23;8.65;;;;;;;21.78;93.16;98122.31;5104636;28;20048;-95
2023/06/13 06:20:51;;;;;;;15.50;7.47;;;;;;;21.97;91.55;98131.59;5107159;28;20394;-94
2023/06/13 06:23:17;;;;;;;15.45;8.07;;;;;;;22.21;90.35;98128.69;5104917;28;20040;-95
2023/06/13 06:25:43;;;;;;;16.75;7.50;;;;;;;22.68;88.73;98099.34;5102932;28;20051;-96
2023/06/13 06:28:09;;;;;;;18.38;7.65;;;;;;;22.42;91.04;98115.16;5106304;28;20044;-95
2023/06/13 06:30:36;;;;;;;14.48;7.50;;;;;;;22.40;89.66;98106.31;5107706;28;20050;-94
2023/06/13 06:33:03;;;;;;;16.17;7.57;;;;;;;22.35;87.71;98104.84;5107953;28;20048;-94
2023/06/13 06:35:29;;;;;;;16.77;8.40;;;;;;;22.19;92.88;98100.88;5107089;28;20108;-95
2023/06/13 06:37:55;;;;;;;16.10;7.85;;;;;;;22.89;86.57;98134.56;5106199;28;20044;-95
2023/06/13 06:40:21;;;;;;;13.32;7.45;;;;;;;23.11;84.21;98099.16;5106109;28;20044;-94
2023/06/13 06:42:47;;;;;;;14.40;7.50;;;;;;;22.48;86.83;98114.66;5107091;28;20044;-94
2023/06/13 06:45:13;;;;;;;14.15;7.80;;;;;;;22.05;89.51;98121.84;5104989;28;20104;-95
2023/06/13 06:47:40;;;;;;;18.25;8.25;;;;;;;22.17;89.78;98122.66;5106444;28;20119;-93
2023/06/13 06:50:09;;;;;;;16.02;8.18;;;;;;;21.77;92.94;98117.88;5109109;28;20079;-95
2023/06/13 06:52:36;;;;;;;15.18;7.90;;;;;;;22.06;90.32;98120.00;5109168;28;20043;-95
2023/06/13 06:55:03;;;;;;;15.30;7.75;;;;;;;21.69;93.80;98104.16;5108105;28;20493;-95
2023/06/13 06:57:29;;;;;;;16.50;7.70;;;;;;;21.79;94.83;98101.53;5107963;28;20091;-95
2023/06/13 06:59:55;;;;;;;16.92;8.15;;;;;;;22.23;90.59;98142.97;5105752;28;20062;-96
2023/06/13 07:02:21;;;;;;;17.60;7.97;;;;;;;22.25;90.13;98120.22;5106067;28;20055;-94
2023/06/13 07:04:47;;;;;;;17.02;7.38;;;;;;;22.38;89.83;98113.72;5106932;28;20148;-95
2023/06/13 07:07:14;;;;;;;12.05;7.40;;;;;;;22.41;88.21;98116.19;5107642;28;20047;-96
2023/06/13 07:09:41;;;;;;;13.80;7.03;;;;;;;22.52;87.06;98105.25;5106494;28;20044;-94
2023/06/13 07:12:07;;;;;;;13.32;6.78;;;;;;;22.41;88.03;98108.91;5105730;28;20040;-94
2023/06/13 07:14:34;;;;;;;14.25;7.20;;;;;;;22.41;88.04;98113.47;5106259;28;20048;-94
2023/06/13 07:17:00;;;;;;;14.55;6.72;;;;;;;22.77;87.23;98136.53;5105930;28;20040;-94
2023/06/13 07:19:26;;;;;;;16.05;7.38;;;;;;;22.58;88.46;98115.56;5105358;28;20044;-95
2023/06/13 07:21:52;;;;;;;14.60;7.50;;;;;;;22.62;86.74;98117.03;5105762;28;20500;-95
2023/06/13 07:24:20;;;;;;;16.15;8.05;;;;;;;22.58;89.30;98121.00;5107326;28;20036;-95
2023/06/13 07:26:46;;;;;;;21.13;7.85;;;;;;;23.05;87.90;98101.56;5106249;28;20044;-94
2023/06/13 07:29:13;;;;;;;14.50;7.28;;;;;;;23.86;84.00;98106.97;5105068;28;20051;-95
2023/06/13 07:31:39;;;;;;;15.68;8.50;;;;;;;24.21;81.69;98113.69;5106137;28;20111;-95
2023/06/13 07:34:05;;;;;;;18.30;7.55;;;;;;;24.40;79.27;98103.66;5105789;28;20040;-96
2023/06/13 07:36:31;;;;;;;16.70;8.18;;;;;;;24.65;78.47;98093.16;5105734;28;20047;-95
2023/06/13 07:38:57;;;;;;;16.23;7.60;;;;;;;25.20;76.94;98087.00;5104778;28;20082;-96
2023/06/13 07:41:25;;;;;;;13.10;7.43;;;;;;;24.98;75.08;98090.91;5104759;28;20046;-93
2023/06/13 07:43:51;;;;;;;19.42;7.40;;;;;;;25.53;73.71;98106.44;5104875;28;20051;-96
2023/06/13 07:46:17;;;;;;;17.38;7.95;;;;;;;25.74;73.07;98079.81;5104475;28;20127;-94
2023/06/13 07:48:43;;;;;;;19.67;7.82;;;;;;;26.08;73.51;98100.06;5101381;28;20078;-95
2023/06/13 07:51:09;;;;;;;22.27;7.93;;;;;;;26.23;72.06;98077.53;5100822;28;20569;-95
2023/06/13 07:53:35;;;;;;;22.83;9.48;;;;;;;26.51;69.60;98068.41;5105826;28;20043;-95
2023/06/13 07:56:04;;;;;;;15.40;7.53;;;;;;;26.76;64.34;98081.22;5101400;28;20043;-96
2023/06/13 07:58:31;;;;;;;13.43;7.47;;;;;;;26.69;62.73;98073.81;5102944;28;20505;-95
2023/06/13 08:00:58;;;;;;;14.75;7.88;;;;;;;26.66;61.35;98058.66;5103549;28;20052;-95
2023/06/13 08:03:24;;;;;;;14.10;7.85;;;;;;;26.70;62.41;98070.09;5101925;28;20040;-95
2023/06/13 08:05:50;;;;;;;14.65;7.90;;;;;;;26.87;61.74;98057.38;5103529;28;20055;-95
2023/06/13 08:08:16;;;;;;;17.27;7.60;;;;;;;26.97;61.28;98060.84;5100502;28;20048;-94
2023/06/13 08:10:42;;;;;;;19.63;7.90;;;;;;;26.88;61.81;98051.78;5101105;28;20055;-94
2023/06/13 08:13:08;;;;;;;14.35;8.25;;;;;;;27.00;61.63;98057.78;5101741;28;20047;-95
2023/06/13 08:15:35;;;;;;;12.88;8.23;;;;;;;27.16;61.14;98060.59;5103745;28;20055;-95
2023/06/13 08:18:01;;;;;;;18.23;7.47;;;;;;;27.31;61.18;98063.59;5103223;28;20040;-95
2023/06/13 08:20:27;;;;;;;17.55;8.35;;;;;;;27.27;59.63;98061.38;5101219;28;20109;-95
2023/06/13 08:22:53;;;;;;;17.40;8.20;;;;;;;26.85;62.52;98063.03;5102054;28;20498;-93
2023/06/13 08:25:19;;;;;;;14.70;7.45;;;;;;;27.09;61.67;98073.19;5101835;28;20074;-94
2023/06/13 08:27:46;;;;;;;16.80;7.93;;;;;;;27.06;60.38;98076.25;5103034;28;20189;-93
2023/06/13 08:30:12;;;;;;;13.45;7.20;;;;;;;26.49;61.53;98067.69;5104289;28;20048;-94
2023/06/13 08:32:41;;;;;;;14.25;7.70;;;;;;;26.76;61.15;98059.41;5102495;28;20048;-93
2023/06/13 08:35:07;;;;;;;14.57;7.68;;;;;;;26.97;60.70;98071.78;5102632;28;20059;-96
2023/06/13 08:37:33;;;;;;;17.15;7.82;;;;;;;26.81;59.39;98062.47;5103131;28;20036;-95
2023/06/13 08:40:00;;;;;;;14.23;7.25;;;;;;;27.01;59.78;98071.28;5101263;28;20060;-94
2023/06/13 08:42:27;;;;;;;11.88;7.22;;;;;;;26.89;57.93;98080.78;5102184;28;20074;-94
2023/06/13 08:44:53;;;;;;;12.18;6.78;;;;;;;26.69;58.80;98063.75;5104773;28;20068;-94
2023/06/13 08:47:19;;;;;;;16.80;7.47;;;;;;;27.00;59.80;98093.25;5101729;28;20525;-95
2023/06/13 08:49:48;;;;;;;15.68;7.32;;;;;;;26.61;62.57;98088.28;5101616;28;20078;-95
2023/06/13 08:52:17;;;;;;;14.80;7.72;;;;;;;26.26;61.81;98080.97;5100166;28;20059;-95
2023/06/13 08:54:44;;;;;;;20.15;10.07;;;;;;;26.59;60.40;98074.78;5101225;28;20044;-96
2023/06/13 08:57:15;;;;;;;11.82;6.68;;;;;;;27.17;59.90;98077.81;5100115;28;20036;-94
2023/06/13 08:59:44;;;;;;;11.35;6.57;;;;;;;26.70;60.23;98086.47;5101614;28;20524;-95
2023/06/13 09:02:18;;;;;;;18.75;7.50;;;;;;;26.99;58.05;98077.91;5100524;28;20044;-96
2023/06/13 09:04:48;;;;;;;12.77;6.75;;;;;;;26.76;61.10;98086.66;5101573;28;20040;-94
2023/06/13 09:07:16;;;;;;;15.00;7.03;;;;;;;27.45;59.64;98075.75;5103755;28;20044;-93
2023/06/13 09:09:43;;;;;;;15.88;6.63;;;;;;;27.49;58.68;98074.41;5104204;28;20051;-94
2023/06/13 09:12:13;;;;;;;13.20;6.60;;;;;;;27.41;58.20;98085.28;5103148;28;20093;-95
2023/06/13 09:14:39;;;;;;;15.13;6.63;;;;;;;27.31;60.43;98074.53;5101931;28;20084;-94
2023/06/13 09:17:06;;;;;;;11.82;6.68;;;;;;;27.55;57.58;98079.19;5103041;28;20050;-94
2023/06/13 09:19:33;;;;;;;11.93;6.93;;;;;;;27.46;58.42;98102.06;5103728;28;20119;-94
2023/06/13 09:22:00;;;;;;;9.88;6.32;;;;;;;27.15;56.98;98068.94;5104210;28;20563;-94
2023/06/13 09:24:27;;;;;;;15.70;6.77;;;;;;;26.92;56.42;98090.50;5122385;28;20044;-93
2023/06/13 09:26:53;;;;;;;11.30;6.25;;;;;;;27.11;57.94;98062.97;5105606;28;20048;-93
2023/06/13 09:29:20;;;;;;;13.88;6.70;;;;;;;27.03;57.29;98085.63;5121542;28;20040;-94
2023/06/13 09:31:46;;;;;;;10.30;6.20;;;;;;;26.62;57.92;98073.63;5102476;28;20367;-94
2023/06/13 09:34:14;;;;;;;15.43;6.80;;;;;;;26.96;57.68;98050.97;5098993;28;20386;-93
2023/06/13 09:36:40;;;;;;;14.70;6.93;;;;;;;27.62;56.85;98080.25;5096747;28;20138;-94
2023/06/13 09:39:07;;;;;;;14.73;7.00;;;;;;;27.72;56.97;98054.69;5096393;28;20043;-95
2023/06/13 09:41:34;;;;;;;10.48;6.22;;;;;;;27.88;54.33;98049.25;5095613;28;20063;-95
2023/06/13 09:44:03;;;;;;;12.18;6.22;;;;;;;27.51;50.08;98052.41;5105789;28;20048;-94
2023/06/13 09:46:33;;;;;;;11.48;6.10;;;;;;;27.65;50.62;98049.00;5106239;28;20071;-94
2023/06/13 09:48:58;;;;;;;12.75;6.78;;;;;;;27.38;52.27;98066.53;5106250;28;20059;-93
2023/06/13 09:51:28;;;;;;;10.30;5.82;;;;;;;27.22;52.09;98034.56;5107462;28;20048;-95
2023/06/13 09:53:54;;;;;;;11.52;6.40;;;;;;;27.38;51.06;98042.78;5108351;28;20074;-96
2023/06/13 09:56:22;;;;;;;10.85;6.30;;;;;;;27.62;50.74;98047.47;5107210;28;20039;-95
2023/06/13 09:58:50;;;;;;;11.20;6.35;;;;;;;27.85;49.94;98038.69;5104146;28;20116;-94
2023/06/13 10:01:17;;;;;;;13.48;6.18;;;;;;;27.57;49.51;98068.97;5103246;28;20051;-94
2023/06/13 10:03:44;;;;;;;11.07;6.10;;;;;;;27.35;50.95;98028.66;5108160;28;20048;-94
2023/06/13 10:06:11;;;;;;;9.65;5.75;;;;;;;27.01;51.22;98030.34;5107058;28;20051;-94
2023/06/13 10:08:37;;;;;;;8.98;5.63;;;;;;;26.64;51.02;98017.03;5107780;28;20044;-94
2023/06/13 10:11:09;;;;;;;10.63;6.18;;;;;;;26.87;50.73;98008.28;5104541;28;20127;-93
2023/06/13 10:13:44;;;;;;;10.98;6.05;;;;;;;26.77;51.63;98036.53;5104361;28;20048;-93
2023/06/13 10:16:12;;;;;;;12.10;5.53;;;;;;;26.93;52.28;98026.72;5100716;28;20036;-94
2023/06/13 10:18:41;;;;;;;10.52;6.10;;;;;;;26.81;50.76;97999.75;5103645;28;20051;-93
2023/06/13 10:21:12;;;;;;;10.13;5.47;;;;;;;26.98;48.44;98003.41;5106192;28;20048;-94
2023/06/13 10:23:44;;;;;;;11.05;6.15;;;;;;;26.80;50.70;97998.00;5104260;28;20040;-93
2023/06/13 10:26:16;;;;;;;9.38;5.78;;;;;;;26.53;49.34;97988.13;5103392;28;20051;-94
2023/06/13 10:29:01;;;;;;;8.88;5.97;;;;;;;26.94;49.51;97993.84;5104420;28;20044;-93
2023/06/13 10:31:35;;;;;;;9.35;5.32;;;;;;;26.38;51.10;97982.44;5098970;28;20044;-93
2023/06/13 10:34:20;;;;;;;9.43;5.82;;;;;;;26.60;49.99;98016.50;5101657;28;20048;-94
2023/06/13 10:37:13;;;;;;;9.70;5.97;;;;;;;25.70;51.96;98013.03;5099846;28;20048;-93
2023/06/13 10:40:06;;;;;;;14.07;5.57;;;;;;;25.38;52.18;98008.13;5098610;28;20048;-93
2023/06/13 10:42:37;;;;;;;9.85;5.55;;;;;;;25.58;54.26;97997.94;5105076;28;20044;-95
2023/06/13 10:45:11;;;;;;;9.77;5.35;;;;;;;25.74;52.97;97976.31;5106028;28;20078;-93
2023/06/13 10:47:38;;;;;;;8.95;5.28;;;;;;;25.67;53.09;97985.25;5104758;28;20040;-94
2023/06/13 10:50:06;;;;;;;9.85;5.97;;;;;;;25.55;53.70;97968.31;5105747;28;20448;-93
2023/06/13 10:52:32;;;;;;;10.73;5.97;;;;;;;25.35;53.97;97995.69;5103477;28;20066;-92
2023/06/13 10:54:59;;;;;;;9.32;5.80;;;;;;;25.33;53.17;97975.03;5104071;28;20044;-93
2023/06/13 10:57:49;;;;;;;10.93;5.20;;;;;;;25.82;53.16;97978.25;5102033;28;20063;-92
2023/06/13 11:00:28;;;;;;;9.23;5.10;;;;;;;26.48;52.44;97963.25;5095497;28;20051;-95
2023/06/13 11:02:58;;;;;;;10.50;5.22;;;;;;;27.09;50.75;97969.50;5100464;28;20060;-93
2023/06/13 11:05:25;;;;;;;8.88;5.20;;;;;;;27.14;49.64;97960.81;5099595;28;20040;-94
2023/06/13 11:07:53;;;;;;;9.75;5.43;;;;;;;27.59;50.77;97957.69;5093606;28;20058;-93
2023/06/13 11:10:19;;;;;;;;;;;;;;;28.20;49.08;97981.97;5096383;28;20048;-93
2023/06/13 11:12:45;;;;;;;8.43;5.32;;;;;;;28.05;48.58;97963.50;5114929;28;20011;-94
2023/06/13 11:15:22;;;;;;;10.38;6.00;;;;;;;28.17;47.72;97977.69;5103681;28;20040;-92
2023/06/13 11:18:25;;;;;;;10.02;5.72;;;;;;;27.77;48.31;98000.38;5103335;28;20092;-94
2023/06/13 11:20:54;;;;;;;9.23;5.70;;;;;;;27.72;49.38;97991.84;5101558;28;20031;-93
2023/06/13 11:23:22;;;;;;;11.45;5.65;;;;;;;27.96;48.51;97982.84;5101737;28;20055;-96
2023/06/13 11:25:50;;;;;;;7.85;5.43;;;;;;;27.61;47.14;97962.97;5101946;28;20090;-92